sensor_id;sensor_type;location;lat;lon;timestamp;pressure;altitude;pressure_sealevel;temperature;humidity
50349;BME280;36250;48.740;22.174;2024-01-15T00:00:33;99347.75;;;3.61;61.38
50349;BME280;36250;48.740;22.174;2024-01-15T00:02:58;99351.03;;;3.63;60.68
50349;BME280;36250;48.740;22.174;2024-01-15T00:05:24;99344.00;;;3.62;60.78
50349;BME280;36250;48.740;22.174;2024-01-15T00:07:49;99337.34;;;3.65;61.06
50349;BME280;36250;48.740;22.174;2024-01-15T00:10:14;99329.66;;;3.68;60.70
50349;BME280;36250;48.740;22.174;2024-01-15T00:12:40;99333.38;;;3.67;60.45
50349;BME280;36250;48.740;22.174;2024-01-15T00:15:05;99330.56;;;3.62;61.41
50349;BME280;36250;48.740;22.174;2024-01-15T00:17:31;99335.59;;;3.59;60.23
50349;BME280;36250;48.740;22.174;2024-01-15T00:19:56;99332.31;;;3.57;60.83
50349;BME280;36250;48.740;22.174;2024-01-15T00:22:23;99323.59;;;3.55;61.15
50349;BME280;36250;48.740;22.174;2024-01-15T00:24:48;99327.50;;;3.59;61.42
50349;BME280;36250;48.740;22.174;2024-01-15T00:27:14;99315.69;;;3.60;61.61
50349;BME280;36250;48.740;22.174;2024-01-15T00:29:39;99307.84;;;3.58;60.79
50349;BME280;36250;48.740;22.174;2024-01-15T00:32:05;99306.44;;;3.56;60.71
50349;BME280;36250;48.740;22.174;2024-01-15T00:34:30;99309.13;;;3.56;61.62
50349;BME280;36250;48.740;22.174;2024-01-15T00:36:56;99312.84;;;3.55;61.00
50349;BME280;36250;48.740;22.174;2024-01-15T00:39:21;99303.34;;;3.52;61.26
50349;BME280;36250;48.740;22.174;2024-01-15T00:41:46;99308.38;;;3.49;60.87
50349;BME280;36250;48.740;22.174;2024-01-15T00:44:12;99304.19;;;3.53;61.11
50349;BME280;36250;48.740;22.174;2024-01-15T00:46:44;99299.72;;;3.47;61.05
50349;BME280;36250;48.740;22.174;2024-01-15T00:49:09;99299.25;;;3.50;61.06
50349;BME280;36250;48.740;22.174;2024-01-15T00:51:35;99302.19;;;3.48;60.96
50349;BME280;36250;48.740;22.174;2024-01-15T00:54:00;99298.91;;;3.46;60.80
50349;BME280;36250;48.740;22.174;2024-01-15T00:56:25;99297.97;;;3.52;61.27
50349;BME280;36250;48.740;22.174;2024-01-15T00:58:51;99302.72;;;3.57;60.48
50349;BME280;36250;48.740;22.174;2024-01-15T01:01:16;99308.44;;;3.60;61.39
50349;BME280;36250;48.740;22.174;2024-01-15T01:03:41;99308.81;;;3.64;60.75
50349;BME280;36250;48.740;22.174;2024-01-15T01:06:07;99303.66;;;3.62;60.95
50349;BME280;36250;48.740;22.174;2024-01-15T01:08:32;99301.78;;;3.63;61.32
50349;BME280;36250;48.740;22.174;2024-01-15T01:10:57;99311.50;;;3.64;60.43
50349;BME280;36250;48.740;22.174;2024-01-15T01:13:23;99268.63;;;3.51;61.08
50349;BME280;36250;48.740;22.174;2024-01-15T01:15:48;99291.72;;;3.58;60.91
50349;BME280;36250;48.740;22.174;2024-01-15T01:18:13;99292.97;;;3.56;60.62
50349;BME280;36250;48.740;22.174;2024-01-15T01:20:39;99288.63;;;3.55;61.13
50349;BME280;36250;48.740;22.174;2024-01-15T01:23:04;99284.03;;;3.44;60.76
50349;BME280;36250;48.740;22.174;2024-01-15T01:25:30;99280.81;;;3.53;61.20
50349;BME280;36250;48.740;22.174;2024-01-15T01:27:55;99274.00;;;3.51;61.37
50349;BME280;36250;48.740;22.174;2024-01-15T01:30:20;99276.09;;;3.49;60.80
50349;BME280;36250;48.740;22.174;2024-01-15T01:32:46;99279.38;;;3.51;60.20
50349;BME280;36250;48.740;22.174;2024-01-15T01:35:12;99283.59;;;3.47;60.98
50349;BME280;36250;48.740;22.174;2024-01-15T01:37:37;99277.28;;;3.53;60.67
50349;BME280;36250;48.740;22.174;2024-01-15T01:40:03;99261.88;;;3.60;61.06
50349;BME280;36250;48.740;22.174;2024-01-15T01:42:28;99254.19;;;3.63;60.73
50349;BME280;36250;48.740;22.174;2024-01-15T01:44:54;99269.81;;;3.55;60.55
50349;BME280;36250;48.740;22.174;2024-01-15T01:47:19;99274.72;;;3.58;60.71
50349;BME280;36250;48.740;22.174;2024-01-15T01:49:45;99272.28;;;3.56;60.58
50349;BME280;36250;48.740;22.174;2024-01-15T01:52:11;99269.63;;;3.68;60.37
50349;BME280;36250;48.740;22.174;2024-01-15T01:54:37;99271.72;;;3.66;60.12
50349;BME280;36250;48.740;22.174;2024-01-15T01:57:05;99266.13;;;3.67;60.41
50349;BME280;36250;48.740;22.174;2024-01-15T01:59:32;99265.75;;;3.64;60.42
50349;BME280;36250;48.740;22.174;2024-01-15T02:01:59;99262.09;;;3.58;59.95
50349;BME280;36250;48.740;22.174;2024-01-15T02:04:26;99263.63;;;3.54;61.00
50349;BME280;36250;48.740;22.174;2024-01-15T02:06:51;99250.63;;;3.51;61.02
50349;BME280;36250;48.740;22.174;2024-01-15T02:09:17;99256.22;;;3.50;60.41
50349;BME280;36250;48.740;22.174;2024-01-15T02:11:43;99259.88;;;3.55;61.23
50349;BME280;36250;48.740;22.174;2024-01-15T02:14:09;99272.97;;;3.52;60.24
50349;BME280;36250;48.740;22.174;2024-01-15T02:16:34;99269.56;;;3.45;61.07
50349;BME280;36250;48.740;22.174;2024-01-15T02:19:00;99264.75;;;3.47;61.01
50349;BME280;36250;48.740;22.174;2024-01-15T02:21:25;99264.06;;;3.51;61.25
50349;BME280;36250;48.740;22.174;2024-01-15T02:23:54;99270.28;;;3.52;60.89
50349;BME280;36250;48.740;22.174;2024-01-15T02:26:19;99264.63;;;3.42;61.64
50349;BME280;36250;48.740;22.174;2024-01-15T02:28:44;99253.00;;;3.29;61.55
50349;BME280;36250;48.740;22.174;2024-01-15T02:31:10;99263.50;;;3.31;62.15
50349;BME280;36250;48.740;22.174;2024-01-15T02:33:35;99260.22;;;3.29;61.75
50349;BME280;36250;48.740;22.174;2024-01-15T02:36:00;99258.22;;;3.24;61.50
50349;BME280;36250;48.740;22.174;2024-01-15T02:38:26;99243.44;;;3.15;61.81
50349;BME280;36250;48.740;22.174;2024-01-15T02:40:51;99240.13;;;3.13;62.36
50349;BME280;36250;48.740;22.174;2024-01-15T02:43:16;99247.31;;;3.19;62.21
50349;BME280;36250;48.740;22.174;2024-01-15T02:45:44;99243.50;;;3.27;61.76
50349;BME280;36250;48.740;22.174;2024-01-15T02:48:09;99239.09;;;3.33;61.51
50349;BME280;36250;48.740;22.174;2024-01-15T02:50:34;99227.03;;;3.35;62.16
50349;BME280;36250;48.740;22.174;2024-01-15T02:53:00;99221.66;;;3.35;61.39
50349;BME280;36250;48.740;22.174;2024-01-15T02:55:25;99218.97;;;3.35;62.04
50349;BME280;36250;48.740;22.174;2024-01-15T02:57:50;99212.44;;;3.43;61.79
50349;BME280;36250;48.740;22.174;2024-01-15T03:00:16;99211.28;;;3.39;62.02
50349;BME280;36250;48.740;22.174;2024-01-15T03:02:45;99209.81;;;3.24;62.45
50349;BME280;36250;48.740;22.174;2024-01-15T03:05:10;99208.50;;;3.15;61.69
50349;BME280;36250;48.740;22.174;2024-01-15T03:07:36;99198.63;;;3.09;62.45
50349;BME280;36250;48.740;22.174;2024-01-15T03:10:01;99187.16;;;3.02;62.18
50349;BME280;36250;48.740;22.174;2024-01-15T03:12:27;99195.00;;;2.86;62.35
50349;BME280;36250;48.740;22.174;2024-01-15T03:14:52;99195.06;;;2.79;63.14
50349;BME280;36250;48.740;22.174;2024-01-15T03:17:17;99190.19;;;2.76;62.79
50349;BME280;36250;48.740;22.174;2024-01-15T03:19:43;99199.56;;;2.67;63.30
50349;BME280;36250;48.740;22.174;2024-01-15T03:22:08;99188.97;;;2.72;62.85
50349;BME280;36250;48.740;22.174;2024-01-15T03:24:34;99193.16;;;2.68;63.41
50349;BME280;36250;48.740;22.174;2024-01-15T03:27:00;99188.22;;;2.65;63.50
50349;BME280;36250;48.740;22.174;2024-01-15T03:29:26;99201.41;;;2.66;63.66
50349;BME280;36250;48.740;22.174;2024-01-15T03:31:51;99215.09;;;2.65;63.90
50349;BME280;36250;48.740;22.174;2024-01-15T03:34:17;99207.41;;;2.69;63.62
50349;BME280;36250;48.740;22.174;2024-01-15T03:36:42;99204.63;;;2.75;63.24
50349;BME280;36250;48.740;22.174;2024-01-15T03:39:07;99201.13;;;2.75;63.01
50349;BME280;36250;48.740;22.174;2024-01-15T03:41:33;99209.56;;;2.78;63.56
50349;BME280;36250;48.740;22.174;2024-01-15T03:43:58;99200.00;;;2.82;63.76
50349;BME280;36250;48.740;22.174;2024-01-15T03:46:24;99197.31;;;2.82;63.13
50349;BME280;36250;48.740;22.174;2024-01-15T03:48:49;99193.13;;;2.86;63.27
50349;BME280;36250;48.740;22.174;2024-01-15T03:51:17;99185.34;;;2.96;63.22
50349;BME280;36250;48.740;22.174;2024-01-15T03:53:42;99180.72;;;3.03;62.90
50349;BME280;36250;48.740;22.174;2024-01-15T03:56:07;99186.03;;;3.10;62.47
50349;BME280;36250;48.740;22.174;2024-01-15T03:58:33;99180.19;;;3.13;62.97
50349;BME280;36250;48.740;22.174;2024-01-15T04:00:58;99172.34;;;3.11;62.39
50349;BME280;36250;48.740;22.174;2024-01-15T04:03:23;99160.69;;;3.17;62.74
50349;BME280;36250;48.740;22.174;2024-01-15T04:05:49;99161.97;;;3.15;63.24
50349;BME280;36250;48.740;22.174;2024-01-15T04:08:14;99148.28;;;3.16;62.45
50349;BME280;36250;48.740;22.174;2024-01-15T04:10:39;99156.34;;;3.16;62.75
50349;BME280;36250;48.740;22.174;2024-01-15T04:13:05;99153.66;;;3.16;62.97
50349;BME280;36250;48.740;22.174;2024-01-15T04:15:30;99153.06;;;3.14;62.49
50349;BME280;36250;48.740;22.174;2024-01-15T04:17:56;99151.56;;;3.18;62.74
50349;BME280;36250;48.740;22.174;2024-01-15T04:20:21;99146.59;;;3.33;62.82
50349;BME280;36250;48.740;22.174;2024-01-15T04:22:46;99134.78;;;3.35;61.91
50349;BME280;36250;48.740;22.174;2024-01-15T04:25:12;99127.06;;;3.38;62.34
50349;BME280;36250;48.740;22.174;2024-01-15T04:27:37;99135.84;;;3.45;62.42
50349;BME280;36250;48.740;22.174;2024-01-15T04:30:03;99123.59;;;3.49;62.04
50349;BME280;36250;48.740;22.174;2024-01-15T04:32:28;99124.75;;;3.42;62.04
50349;BME280;36250;48.740;22.174;2024-01-15T04:34:55;99125.91;;;3.46;62.72
50349;BME280;36250;48.740;22.174;2024-01-15T04:37:20;99111.78;;;3.50;62.08
50349;BME280;36250;48.740;22.174;2024-01-15T04:39:45;99105.94;;;3.42;61.48
50349;BME280;36250;48.740;22.174;2024-01-15T04:42:11;99093.19;;;3.37;62.08
50349;BME280;36250;48.740;22.174;2024-01-15T04:44:36;99086.38;;;3.35;62.71
50349;BME280;36250;48.740;22.174;2024-01-15T04:47:02;99091.78;;;3.35;61.83
50349;BME280;36250;48.740;22.174;2024-01-15T04:49:27;99093.03;;;3.32;61.68
50349;BME280;36250;48.740;22.174;2024-01-15T04:51:54;99081.81;;;3.35;61.82
50349;BME280;36250;48.740;22.174;2024-01-15T04:54:19;99088.50;;;3.33;62.04
50349;BME280;36250;48.740;22.174;2024-01-15T04:56:45;99083.91;;;3.33;62.32
50349;BME280;36250;48.740;22.174;2024-01-15T04:59:11;99077.50;;;3.34;62.14
50349;BME280;36250;48.740;22.174;2024-01-15T05:01:36;99084.75;;;3.33;62.23
50349;BME280;36250;48.740;22.174;2024-01-15T05:04:02;99079.59;;;3.32;61.43
50349;BME280;36250;48.740;22.174;2024-01-15T05:06:27;99080.28;;;3.27;61.46
50349;BME280;36250;48.740;22.174;2024-01-15T05:08:53;99069.63;;;3.21;62.04
50349;BME280;36250;48.740;22.174;2024-01-15T05:11:18;99069.50;;;3.16;61.73
50349;BME280;36250;48.740;22.174;2024-01-15T05:13:43;99056.19;;;3.21;62.34
50349;BME280;36250;48.740;22.174;2024-01-15T05:16:09;99044.16;;;3.23;62.18
50349;BME280;36250;48.740;22.174;2024-01-15T05:18:34;99054.69;;;3.25;62.18
50349;BME280;36250;48.740;22.174;2024-01-15T05:20:59;99052.91;;;3.30;62.40
50349;BME280;36250;48.740;22.174;2024-01-15T05:23:25;99053.28;;;3.34;62.06
50349;BME280;36250;48.740;22.174;2024-01-15T05:25:50;99061.94;;;3.36;62.46
50349;BME280;36250;48.740;22.174;2024-01-15T05:28:15;99060.53;;;3.45;62.33
50349;BME280;36250;48.740;22.174;2024-01-15T05:30:41;99062.66;;;3.55;62.32
50349;BME280;36250;48.740;22.174;2024-01-15T05:33:06;99062.78;;;3.60;61.58
50349;BME280;36250;48.740;22.174;2024-01-15T05:35:33;99074.03;;;3.68;61.81
50349;BME280;36250;48.740;22.174;2024-01-15T05:37:58;99074.03;;;3.80;60.91
50349;BME280;36250;48.740;22.174;2024-01-15T05:40:24;99071.00;;;3.76;61.28
50349;BME280;36250;48.740;22.174;2024-01-15T05:42:49;99073.19;;;3.79;60.68
50349;BME280;36250;48.740;22.174;2024-01-15T05:45:14;99073.56;;;3.83;60.35
50349;BME280;36250;48.740;22.174;2024-01-15T05:47:40;99079.28;;;3.75;60.89
50349;BME280;36250;48.740;22.174;2024-01-15T05:50:05;99066.41;;;3.77;60.71
50349;BME280;36250;48.740;22.174;2024-01-15T05:52:32;99061.53;;;3.74;60.65
50349;BME280;36250;48.740;22.174;2024-01-15T05:54:57;99052.63;;;3.73;60.80
50349;BME280;36250;48.740;22.174;2024-01-15T05:57:23;99048.97;;;3.68;61.63
50349;BME280;36250;48.740;22.174;2024-01-15T05:59:48;99055.19;;;3.68;61.15
50349;BME280;36250;48.740;22.174;2024-01-15T06:02:13;99044.66;;;3.67;61.00
50349;BME280;36250;48.740;22.174;2024-01-15T06:04:39;99038.34;;;3.73;61.26
50349;BME280;36250;48.740;22.174;2024-01-15T06:07:04;99041.03;;;3.73;60.69
50349;BME280;36250;48.740;22.174;2024-01-15T06:09:30;99039.16;;;3.85;60.52
50349;BME280;36250;48.740;22.174;2024-01-15T06:11:56;99034.34;;;3.87;59.65
50349;BME280;36250;48.740;22.174;2024-01-15T06:14:22;99034.22;;;3.82;60.12
50349;BME280;36250;48.740;22.174;2024-01-15T06:16:47;99034.81;;;3.84;59.80
50349;BME280;36250;48.740;22.174;2024-01-15T06:19:12;99031.53;;;3.82;60.57
50349;BME280;36250;48.740;22.174;2024-01-15T06:21:38;99032.63;;;3.81;60.86
50349;BME280;36250;48.740;22.174;2024-01-15T06:24:03;99026.97;;;3.94;60.04
50349;BME280;36250;48.740;22.174;2024-01-15T06:26:29;99013.16;;;4.02;59.97
50349;BME280;36250;48.740;22.174;2024-01-15T06:28:54;99002.22;;;4.09;60.06
50349;BME280;36250;48.740;22.174;2024-01-15T06:31:20;98988.09;;;4.13;59.69
50349;BME280;36250;48.740;22.174;2024-01-15T06:33:45;98983.38;;;4.20;60.03
50349;BME280;36250;48.740;22.174;2024-01-15T06:36:13;98979.13;;;4.24;60.04
50349;BME280;36250;48.740;22.174;2024-01-15T06:38:38;99006.66;;;4.26;59.31
50349;BME280;36250;48.740;22.174;2024-01-15T06:41:04;99010.16;;;4.27;59.80
50349;BME280;36250;48.740;22.174;2024-01-15T06:43:29;99003.94;;;4.26;59.03
50349;BME280;36250;48.740;22.174;2024-01-15T06:45:55;98991.16;;;4.33;59.43
50349;BME280;36250;48.740;22.174;2024-01-15T06:48:20;98986.44;;;4.40;59.15
50349;BME280;36250;48.740;22.174;2024-01-15T06:50:45;98986.53;;;4.45;58.76
50349;BME280;36250;48.740;22.174;2024-01-15T06:53:11;98993.47;;;4.41;58.78
50349;BME280;36250;48.740;22.174;2024-01-15T06:55:38;98992.53;;;4.47;58.74
50349;BME280;36250;48.740;22.174;2024-01-15T06:58:03;98996.38;;;4.51;58.44
50349;BME280;36250;48.740;22.174;2024-01-15T07:00:29;99004.22;;;4.53;58.88
50349;BME280;36250;48.740;22.174;2024-01-15T07:02:54;98994.94;;;4.60;58.25
50349;BME280;36250;48.740;22.174;2024-01-15T07:05:23;98992.31;;;4.65;58.56
50349;BME280;36250;48.740;22.174;2024-01-15T07:07:49;98995.38;;;4.69;58.81
50349;BME280;36250;48.740;22.174;2024-01-15T07:10:14;98993.47;;;4.70;58.40
50349;BME280;36250;48.740;22.174;2024-01-15T07:12:42;98987.13;;;4.76;57.94
50349;BME280;36250;48.740;22.174;2024-01-15T07:15:07;98984.03;;;4.84;58.11
50349;BME280;36250;48.740;22.174;2024-01-15T07:17:34;98993.28;;;4.88;57.53
50349;BME280;36250;48.740;22.174;2024-01-15T07:19:59;98996.88;;;4.93;57.77
50349;BME280;36250;48.740;22.174;2024-01-15T07:22:24;98995.00;;;4.94;57.04
50349;BME280;36250;48.740;22.174;2024-01-15T07:24:50;98991.50;;;4.93;57.74
50349;BME280;36250;48.740;22.174;2024-01-15T07:27:15;98999.88;;;4.97;57.80
50349;BME280;36250;48.740;22.174;2024-01-15T07:29:41;98992.31;;;4.94;57.49
50349;BME280;36250;48.740;22.174;2024-01-15T07:32:07;98995.66;;;5.01;57.08
50349;BME280;36250;48.740;22.174;2024-01-15T07:34:33;98991.00;;;5.13;57.37
50349;BME280;36250;48.740;22.174;2024-01-15T07:36:58;98983.56;;;5.20;56.89
50349;BME280;36250;48.740;22.174;2024-01-15T07:39:23;98985.53;;;5.24;57.42
50349;BME280;36250;48.740;22.174;2024-01-15T07:41:50;98972.94;;;5.30;56.64
50349;BME280;36250;48.740;22.174;2024-01-15T07:44:15;98968.69;;;5.34;56.88
50349;BME280;36250;48.740;22.174;2024-01-15T07:46:44;98967.13;;;5.38;57.23
50349;BME280;36250;48.740;22.174;2024-01-15T07:49:10;98964.69;;;5.37;57.06
50349;BME280;36250;48.740;22.174;2024-01-15T07:51:35;98963.63;;;5.38;56.72
50349;BME280;36250;48.740;22.174;2024-01-15T07:54:03;98961.16;;;5.36;56.76
50349;BME280;36250;48.740;22.174;2024-01-15T07:56:28;98966.06;;;5.39;56.63
50349;BME280;36250;48.740;22.174;2024-01-15T07:58:54;98965.56;;;5.42;55.79
50349;BME280;36250;48.740;22.174;2024-01-15T08:01:19;98962.81;;;5.37;56.47
50349;BME280;36250;48.740;22.174;2024-01-15T08:03:44;98956.16;;;5.45;56.20
50349;BME280;36250;48.740;22.174;2024-01-15T08:06:10;98954.59;;;5.49;55.72
50349;BME280;36250;48.740;22.174;2024-01-15T08:08:36;98948.22;;;5.55;56.61
50349;BME280;36250;48.740;22.174;2024-01-15T08:11:02;98941.53;;;5.57;56.11
50349;BME280;36250;48.740;22.174;2024-01-15T08:13:27;98949.63;;;5.57;56.11
50349;BME280;36250;48.740;22.174;2024-01-15T08:15:53;98934.97;;;5.53;55.80
50349;BME280;36250;48.740;22.174;2024-01-15T08:18:18;98937.75;;;5.58;55.85
50349;BME280;36250;48.740;22.174;2024-01-15T08:20:43;98940.50;;;5.63;56.09
50349;BME280;36250;48.740;22.174;2024-01-15T08:23:09;98932.00;;;5.71;56.34
50349;BME280;36250;48.740;22.174;2024-01-15T08:25:34;98923.41;;;5.74;55.72
50349;BME280;36250;48.740;22.174;2024-01-15T08:28:00;98923.47;;;5.79;55.61
50349;BME280;36250;48.740;22.174;2024-01-15T08:30:25;98913.78;;;5.83;54.86
50349;BME280;36250;48.740;22.174;2024-01-15T08:32:53;98909.38;;;5.77;55.22
50349;BME280;36250;48.740;22.174;2024-01-15T08:35:19;98919.63;;;5.75;54.90
50349;BME280;36250;48.740;22.174;2024-01-15T08:37:51;98907.75;;;5.76;54.99
50349;BME280;36250;48.740;22.174;2024-01-15T08:40:16;98925.25;;;5.90;54.93
50349;BME280;36250;48.740;22.174;2024-01-15T08:42:42;98919.28;;;5.88;54.87
50349;BME280;36250;48.740;22.174;2024-01-15T08:45:08;98920.41;;;5.92;54.68
50349;BME280;36250;48.740;22.174;2024-01-15T08:47:34;98911.47;;;5.92;54.28
50349;BME280;36250;48.740;22.174;2024-01-15T08:49:59;98923.63;;;5.73;54.84
50349;BME280;36250;48.740;22.174;2024-01-15T08:52:25;98938.22;;;5.72;54.52
50349;BME280;36250;48.740;22.174;2024-01-15T08:54:50;98942.66;;;5.83;54.90
50349;BME280;36250;48.740;22.174;2024-01-15T08:57:16;98943.81;;;5.87;54.73
50349;BME280;36250;48.740;22.174;2024-01-15T08:59:41;98941.28;;;5.80;55.05
50349;BME280;36250;48.740;22.174;2024-01-15T09:02:07;98951.94;;;5.70;54.83
50349;BME280;36250;48.740;22.174;2024-01-15T09:04:33;98949.81;;;5.72;54.49
50349;BME280;36250;48.740;22.174;2024-01-15T09:06:58;98953.81;;;5.86;55.31
50349;BME280;36250;48.740;22.174;2024-01-15T09:09:23;98942.78;;;5.71;55.23
50349;BME280;36250;48.740;22.174;2024-01-15T09:11:49;98941.97;;;5.71;54.95
50349;BME280;36250;48.740;22.174;2024-01-15T09:14:15;98943.69;;;5.77;55.63
50349;BME280;36250;48.740;22.174;2024-01-15T09:16:40;98947.34;;;5.87;55.20
50349;BME280;36250;48.740;22.174;2024-01-15T09:19:06;98941.44;;;5.90;54.72
50349;BME280;36250;48.740;22.174;2024-01-15T09:21:31;98944.16;;;5.90;54.88
50349;BME280;36250;48.740;22.174;2024-01-15T09:23:56;98941.38;;;6.07;55.37
50349;BME280;36250;48.740;22.174;2024-01-15T09:26:22;98934.03;;;6.03;54.80
50349;BME280;36250;48.740;22.174;2024-01-15T09:28:47;98936.19;;;6.01;55.01
50349;BME280;36250;48.740;22.174;2024-01-15T09:31:12;98943.19;;;6.02;54.51
50349;BME280;36250;48.740;22.174;2024-01-15T09:33:38;98932.84;;;6.15;54.92
50349;BME280;36250;48.740;22.174;2024-01-15T09:36:04;98934.63;;;6.31;54.54
50349;BME280;36250;48.740;22.174;2024-01-15T09:38:30;98927.25;;;6.48;54.33
50349;BME280;36250;48.740;22.174;2024-01-15T09:40:57;98917.88;;;6.56;54.46
50349;BME280;36250;48.740;22.174;2024-01-15T09:43:22;98914.81;;;6.74;53.71
50349;BME280;36250;48.740;22.174;2024-01-15T09:45:49;98912.53;;;6.93;53.35
50349;BME280;36250;48.740;22.174;2024-01-15T09:48:15;98910.13;;;6.96;53.16
50349;BME280;36250;48.740;22.174;2024-01-15T09:50:41;98918.84;;;7.03;53.14
50349;BME280;36250;48.740;22.174;2024-01-15T09:53:07;98914.38;;;6.87;53.24
50349;BME280;36250;48.740;22.174;2024-01-15T09:55:36;98918.00;;;6.71;53.43
50349;BME280;36250;48.740;22.174;2024-01-15T09:58:03;98915.53;;;6.65;53.44
50349;BME280;36250;48.740;22.174;2024-01-15T10:00:29;98914.19;;;6.67;53.65
50349;BME280;36250;48.740;22.174;2024-01-15T10:02:56;98908.47;;;6.63;53.95
50349;BME280;36250;48.740;22.174;2024-01-15T10:05:21;98912.47;;;6.56;54.05
50349;BME280;36250;48.740;22.174;2024-01-15T10:07:47;98882.16;;;6.54;53.89
50349;BME280;36250;48.740;22.174;2024-01-15T10:10:15;98889.22;;;6.55;53.99
50349;BME280;36250;48.740;22.174;2024-01-15T10:12:41;98891.81;;;6.45;54.10
50349;BME280;36250;48.740;22.174;2024-01-15T10:15:09;98892.88;;;6.44;54.51
50349;BME280;36250;48.740;22.174;2024-01-15T10:17:39;98894.72;;;6.38;54.67
50349;BME280;36250;48.740;22.174;2024-01-15T10:20:11;98901.31;;;6.47;54.55
50349;BME280;36250;48.740;22.174;2024-01-15T10:22:45;98900.13;;;6.38;54.88
50349;BME280;36250;48.740;22.174;2024-01-15T10:25:13;98898.72;;;6.36;54.33
50349;BME280;36250;48.740;22.174;2024-01-15T10:27:39;98880.41;;;6.38;55.12
50349;BME280;36250;48.740;22.174;2024-01-15T10:30:05;98889.63;;;6.42;55.09
50349;BME280;36250;48.740;22.174;2024-01-15T10:32:31;98887.03;;;6.52;54.80
50349;BME280;36250;48.740;22.174;2024-01-15T10:34:57;98879.00;;;6.62;54.69
50349;BME280;36250;48.740;22.174;2024-01-15T10:37:24;98878.28;;;6.72;54.73
50349;BME280;36250;48.740;22.174;2024-01-15T10:39:49;98874.47;;;6.73;53.99
50349;BME280;36250;48.740;22.174;2024-01-15T10:42:15;98874.19;;;6.69;53.94
50349;BME280;36250;48.740;22.174;2024-01-15T10:44:41;98874.44;;;6.68;53.80
50349;BME280;36250;48.740;22.174;2024-01-15T10:47:08;98877.59;;;6.54;54.28
50349;BME280;36250;48.740;22.174;2024-01-15T10:49:34;98879.91;;;6.46;54.46
50349;BME280;36250;48.740;22.174;2024-01-15T10:52:00;98874.00;;;6.49;54.81
50349;BME280;36250;48.740;22.174;2024-01-15T10:54:27;98872.41;;;6.53;54.94
50349;BME280;36250;48.740;22.174;2024-01-15T10:56:52;98868.44;;;6.60;54.47
50349;BME280;36250;48.740;22.174;2024-01-15T10:59:20;98858.88;;;6.48;54.43
50349;BME280;36250;48.740;22.174;2024-01-15T11:01:48;98857.78;;;6.49;54.88
50349;BME280;36250;48.740;22.174;2024-01-15T11:04:14;98868.34;;;6.50;54.87
50349;BME280;36250;48.740;22.174;2024-01-15T11:06:42;98866.13;;;6.74;54.58
50349;BME280;36250;48.740;22.174;2024-01-15T11:09:08;98864.16;;;6.96;53.96
50349;BME280;36250;48.740;22.174;2024-01-15T11:11:44;98854.31;;;6.85;53.67
50349;BME280;36250;48.740;22.174;2024-01-15T11:14:10;98859.56;;;7.02;54.11
50349;BME280;36250;48.740;22.174;2024-01-15T11:16:55;98854.63;;;7.31;53.51
50349;BME280;36250;48.740;22.174;2024-01-15T11:19:35;98842.84;;;7.57;52.79
50349;BME280;36250;48.740;22.174;2024-01-15T11:22:01;98849.94;;;7.68;52.08
50349;BME280;36250;48.740;22.174;2024-01-15T11:27:03;98841.06;;;7.77;52.65
50349;BME280;36250;48.740;22.174;2024-01-15T11:29:33;98848.34;;;7.72;51.84
50349;BME280;36250;48.740;22.174;2024-01-15T11:35:01;98845.78;;;7.45;52.02
50349;BME280;36250;48.740;22.174;2024-01-15T11:40:11;98839.88;;;7.06;53.37
50349;BME280;36250;48.740;22.174;2024-01-15T11:42:38;98836.03;;;7.02;53.40
50349;BME280;36250;48.740;22.174;2024-01-15T11:45:03;98847.69;;;7.03;53.34
50349;BME280;36250;48.740;22.174;2024-01-15T11:50:29;98841.28;;;6.77;53.62
50349;BME280;36250;48.740;22.174;2024-01-15T11:53:03;98845.75;;;6.61;54.71
50349;BME280;36250;48.740;22.174;2024-01-15T11:55:35;98844.31;;;6.54;54.84
50349;BME280;36250;48.740;22.174;2024-01-15T11:58:08;98846.00;;;6.60;54.70
50349;BME280;36250;48.740;22.174;2024-01-15T12:00:39;98831.50;;;6.71;54.45
50349;BME280;36250;48.740;22.174;2024-01-15T12:03:05;98833.19;;;6.77;54.43
50349;BME280;36250;48.740;22.174;2024-01-15T12:05:30;98822.63;;;6.81;54.35
50349;BME280;36250;48.740;22.174;2024-01-15T12:07:56;98815.28;;;6.71;54.26
50349;BME280;36250;48.740;22.174;2024-01-15T12:10:22;98826.63;;;6.73;54.77
50349;BME280;36250;48.740;22.174;2024-01-15T12:12:58;98804.81;;;6.80;54.10
50349;BME280;36250;48.740;22.174;2024-01-15T12:15:25;98805.59;;;6.80;54.16
50349;BME280;36250;48.740;22.174;2024-01-15T12:17:51;98805.63;;;6.85;54.53
50349;BME280;36250;48.740;22.174;2024-01-15T12:20:17;98808.88;;;6.87;53.96
50349;BME280;36250;48.740;22.174;2024-01-15T12:22:43;98808.88;;;6.82;54.29
50349;BME280;36250;48.740;22.174;2024-01-15T12:25:09;98814.56;;;6.86;54.39
50349;BME280;36250;48.740;22.174;2024-01-15T12:27:35;98812.34;;;6.78;54.39
50349;BME280;36250;48.740;22.174;2024-01-15T12:30:01;98814.72;;;6.69;54.37
50349;BME280;36250;48.740;22.174;2024-01-15T12:32:26;98803.09;;;6.69;54.99
50349;BME280;36250;48.740;22.174;2024-01-15T12:34:51;98812.28;;;6.73;54.50
50349;BME280;36250;48.740;22.174;2024-01-15T12:37:20;98812.88;;;6.75;54.37
50349;BME280;36250;48.740;22.174;2024-01-15T12:39:46;98814.56;;;6.86;55.03
50349;BME280;36250;48.740;22.174;2024-01-15T12:42:14;98817.03;;;6.92;54.55
50349;BME280;36250;48.740;22.174;2024-01-15T12:44:39;98816.28;;;7.02;54.51
50349;BME280;36250;48.740;22.174;2024-01-15T12:47:06;98813.34;;;7.03;54.35
50349;BME280;36250;48.740;22.174;2024-01-15T12:49:32;98804.63;;;6.96;54.36
50349;BME280;36250;48.740;22.174;2024-01-15T12:51:58;98809.97;;;6.86;54.62
50349;BME280;36250;48.740;22.174;2024-01-15T12:54:24;98804.22;;;6.78;54.44
50349;BME280;36250;48.740;22.174;2024-01-15T12:56:50;98807.16;;;6.71;54.73
50349;BME280;36250;48.740;22.174;2024-01-15T12:59:16;98807.66;;;6.68;54.63
50349;BME280;36250;48.740;22.174;2024-01-15T13:01:42;98806.06;;;6.67;55.13
50349;BME280;36250;48.740;22.174;2024-01-15T13:04:08;98808.50;;;6.69;55.04